createdAt,value
2022-11-09T00:00:41.879Z,10.09
2022-11-09T00:05:43.430Z,10.04
2022-11-09T00:10:44.990Z,9.96
2022-11-09T00:15:48.713Z,9.86
2022-11-09T00:20:50.263Z,9.81
2022-11-09T00:25:51.849Z,9.75
2022-11-09T00:30:59.355Z,9.90
2022-11-09T00:36:07.363Z,9.97
2022-11-09T00:41:12.340Z,10.05
2022-11-09T00:46:14.167Z,10.07
2022-11-09T00:51:19.044Z,10.05
2022-11-09T00:56:21.468Z,10.04
2022-11-09T01:01:23.382Z,10.00
2022-11-09T01:06:26.302Z,9.96
2022-11-09T01:11:28.110Z,10.05
2022-11-09T01:16:29.804Z,10.13
2022-11-09T01:21:31.871Z,10.12
2022-11-09T01:26:35.136Z,10.02
2022-11-09T01:31:36.696Z,10.09
2022-11-09T01:36:38.255Z,10.18
2022-11-09T01:41:39.902Z,10.25
2022-11-09T01:46:50.633Z,10.15
2022-11-09T01:52:01.622Z,10.15
2022-11-09T01:57:10.518Z,10.28
2022-11-09T02:02:12.764Z,10.33
2022-11-09T02:07:19.615Z,10.34
2022-11-09T02:12:22.881Z,10.40
2022-11-09T02:17:24.755Z,10.45
2022-11-09T02:22:26.804Z,10.51
2022-11-09T02:27:28.418Z,10.47
2022-11-09T02:32:30.810Z,10.50
2022-11-09T02:37:47.152Z,10.49
2022-11-09T02:42:48.820Z,10.38
2022-11-09T02:47:50.419Z,10.38
2022-11-09T02:52:52.282Z,10.48
2022-11-09T02:57:54.076Z,10.50
2022-11-09T03:02:58.148Z,10.45
2022-11-09T03:08:02.551Z,10.43
2022-11-09T03:13:07.447Z,10.42
2022-11-09T03:18:10.015Z,10.43
2022-11-09T03:23:12.350Z,10.47
2022-11-09T03:28:17.032Z,10.53
2022-11-09T03:33:19.415Z,10.49
2022-11-09T03:38:21.414Z,10.58
2022-11-09T03:43:24.488Z,10.64
2022-11-09T03:48:26.064Z,10.68
2022-11-09T03:53:27.679Z,10.72
2022-11-09T03:58:29.210Z,10.80
2022-11-09T04:03:30.769Z,10.90
2022-11-09T04:08:34.485Z,10.97
2022-11-09T04:13:36.110Z,11.03
2022-11-09T04:18:37.916Z,11.06
2022-11-09T04:23:39.539Z,11.08
2022-11-09T04:28:41.203Z,11.15
2022-11-09T04:33:42.780Z,11.17
2022-11-09T04:38:44.448Z,11.23
2022-11-09T04:43:46.037Z,11.29
2022-11-09T04:48:47.678Z,11.29
2022-11-09T04:53:49.246Z,11.30
2022-11-09T04:58:50.808Z,11.27
2022-11-09T05:03:54.923Z,11.33
2022-11-09T05:08:56.717Z,11.34
2022-11-09T05:13:58.439Z,11.32
2022-11-09T05:19:00.009Z,11.31
2022-11-09T05:24:02.980Z,11.28
2022-11-09T05:29:10.279Z,11.17
2022-11-09T05:34:13.644Z,11.26
2022-11-09T05:39:15.293Z,11.20
2022-11-09T05:44:17.008Z,11.09
2022-11-09T05:49:18.606Z,11.06
2022-11-09T05:54:20.152Z,11.08
2022-11-09T05:59:21.713Z,11.13
2022-11-09T06:04:23.320Z,11.17
2022-11-09T06:09:24.863Z,11.16
2022-11-09T06:14:26.725Z,11.11
2022-11-09T06:19:29.517Z,10.95
2022-11-09T06:24:31.156Z,10.82
2022-11-09T06:29:33.183Z,10.73
2022-11-09T06:34:34.777Z,10.67
2022-11-09T06:39:36.381Z,10.66
2022-11-09T06:44:38.127Z,10.59
2022-11-09T06:49:39.778Z,10.51
2022-11-09T06:54:41.339Z,10.46
2022-11-09T06:59:43.067Z,10.47
2022-11-09T07:04:45.049Z,10.50
2022-11-09T07:09:47.426Z,10.54
2022-11-09T07:14:49.037Z,10.55
2022-11-09T07:19:50.607Z,10.57
2022-11-09T07:24:55.759Z,10.70
2022-11-09T07:29:57.317Z,10.83
2022-11-09T07:34:58.869Z,10.97
2022-11-09T07:40:00.453Z,11.09
2022-11-09T07:45:02.056Z,11.20
2022-11-09T07:50:04.391Z,11.31
2022-11-09T07:55:06.532Z,11.31
2022-11-09T08:00:08.879Z,11.40
2022-11-09T08:05:14.129Z,11.57
2022-11-09T08:10:15.983Z,11.69
2022-11-09T08:15:17.582Z,11.82
2022-11-09T08:20:19.963Z,11.93
2022-11-09T08:25:21.617Z,12.05
2022-11-09T08:30:23.382Z,12.28
2022-11-09T08:35:26.113Z,12.40
2022-11-09T08:40:27.782Z,12.60
2022-11-09T08:45:32.464Z,12.71
2022-11-09T08:50:36.111Z,12.85
2022-11-09T08:55:37.836Z,12.95
2022-11-09T09:00:39.415Z,12.91
2022-11-09T09:05:42.378Z,12.99
2022-11-09T09:10:43.937Z,13.14
2022-11-09T09:15:45.501Z,13.24
2022-11-09T09:20:50.056Z,13.51
2022-11-09T09:25:55.148Z,13.73
2022-11-09T09:31:00.456Z,13.93
2022-11-09T09:36:02.313Z,14.13
2022-11-09T09:41:21.738Z,14.37
2022-11-09T09:46:37.633Z,14.77
2022-11-09T09:51:46.977Z,15.10
2022-11-09T09:56:51.033Z,15.29
2022-11-09T10:01:57.368Z,15.49
2022-11-09T10:07:24.266Z,15.71
2022-11-09T10:12:38.154Z,15.91
2022-11-09T10:18:07.234Z,16.10
2022-11-09T10:23:17.541Z,16.14
2022-11-09T10:28:23.744Z,16.22
2022-11-09T10:33:28.440Z,16.36
2022-11-09T10:38:39.221Z,16.39
2022-11-09T10:43:59.055Z,16.35
2022-11-09T10:49:21.563Z,16.25
2022-11-09T10:54:41.520Z,16.06
2022-11-09T11:00:02.492Z,15.89
2022-11-09T11:05:29.015Z,15.94
2022-11-09T11:10:49.179Z,16.05
2022-11-09T11:16:36.945Z,16.18
2022-11-09T11:22:12.413Z,16.24
2022-11-09T11:27:45.118Z,16.41
2022-11-09T11:33:14.942Z,16.45
2022-11-09T11:38:39.952Z,16.38
2022-11-09T11:44:24.633Z,16.58
2022-11-09T11:50:03.362Z,16.79
2022-11-09T11:55:51.617Z,16.93
2022-11-09T12:01:25.933Z,16.95
2022-11-09T12:07:04.692Z,16.92
2022-11-09T12:13:01.553Z,16.99
2022-11-09T12:18:24.481Z,17.12
2022-11-09T12:24:12.428Z,17.02
2022-11-09T12:29:59.276Z,17.02
2022-11-09T12:35:34.321Z,16.97
2022-11-09T12:41:02.187Z,16.79
2022-11-09T12:46:29.184Z,16.75
2022-11-09T12:51:49.865Z,16.73
2022-11-09T12:57:16.099Z,16.55
2022-11-09T13:02:42.904Z,16.39
2022-11-09T13:08:14.617Z,16.30
2022-11-09T13:13:35.114Z,16.24
2022-11-09T13:18:55.045Z,16.16
2022-11-09T13:24:30.404Z,16.08
2022-11-09T13:29:55.305Z,16.08
2022-11-09T13:35:39.771Z,16.03
2022-11-09T13:41:01.779Z,15.98
2022-11-09T13:46:29.592Z,15.88
2022-11-09T13:51:49.839Z,15.75
2022-11-09T13:57:10.956Z,15.53
2022-11-09T14:02:30.916Z,15.44
2022-11-09T14:07:53.847Z,15.33
2022-11-09T14:13:32.833Z,15.04
2022-11-09T14:19:05.612Z,14.86
2022-11-09T14:24:33.580Z,14.58
2022-11-09T14:29:55.884Z,14.47
2022-11-09T14:35:21.399Z,14.30
2022-11-09T14:40:46.646Z,14.09
2022-11-09T14:46:14.440Z,13.90
2022-11-09T14:51:39.874Z,13.78
2022-11-09T14:57:00.731Z,13.70
2022-11-09T15:02:23.504Z,13.64
2022-11-09T15:07:48.377Z,13.46
2022-11-09T15:13:09.014Z,13.31
2022-11-09T15:18:34.176Z,13.24
2022-11-09T15:24:06.830Z,13.13
2022-11-09T15:29:36.559Z,13.05
2022-11-09T15:34:58.754Z,12.99
2022-11-09T15:40:21.897Z,12.89
2022-11-09T15:45:42.235Z,12.83
2022-11-09T15:51:02.473Z,12.78
2022-11-09T15:56:24.441Z,12.68
2022-11-09T16:01:44.547Z,12.48
2022-11-09T16:07:04.849Z,12.39
2022-11-09T16:12:25.049Z,12.35
2022-11-09T16:17:45.925Z,12.25
2022-11-09T16:23:06.160Z,12.21
2022-11-09T16:28:26.502Z,12.18
2022-11-09T16:33:46.734Z,12.13
2022-11-09T16:39:09.287Z,12.04
2022-11-09T16:44:34.109Z,11.98
2022-11-09T16:49:53.986Z,11.94
2022-11-09T16:55:14.348Z,11.93
2022-11-09T17:06:14.819Z,11.89
2022-11-09T17:11:35.042Z,11.84
2022-11-09T17:16:57.236Z,11.83
2022-11-09T17:22:18.022Z,11.80
2022-11-09T17:27:38.735Z,11.75
2022-11-09T17:32:59.418Z,11.68
2022-11-09T17:38:19.788Z,11.63
2022-11-09T17:43:41.340Z,11.60
2022-11-09T17:49:09.558Z,11.64
2022-11-09T17:54:35.480Z,11.68
2022-11-09T17:59:56.845Z,11.70
2022-11-09T18:05:16.871Z,11.73
2022-11-09T18:10:38.975Z,11.78
2022-11-09T18:15:59.386Z,11.81
2022-11-09T18:21:19.658Z,11.85
2022-11-09T18:26:39.739Z,11.91
2022-11-09T18:31:59.868Z,11.87
2022-11-09T18:37:19.859Z,11.85
2022-11-09T18:42:39.766Z,11.77
2022-11-09T18:48:02.580Z,11.55
2022-11-09T18:53:24.600Z,11.53
2022-11-09T18:58:46.136Z,11.40
2022-11-09T19:04:06.429Z,10.97
2022-11-09T19:09:29.621Z,10.72
2022-11-09T19:14:49.745Z,10.76
2022-11-09T19:20:09.806Z,10.86
2022-11-09T19:25:30.011Z,10.97
2022-11-09T19:30:49.935Z,11.01
2022-11-09T19:41:50.386Z,11.06
2022-11-09T19:47:11.382Z,11.04
2022-11-09T19:52:31.489Z,11.07
2022-11-09T19:57:54.178Z,10.97
2022-11-09T20:03:14.644Z,10.87
2022-11-09T20:08:36.487Z,10.80
2022-11-09T20:13:56.686Z,10.84
2022-11-09T20:19:17.697Z,10.87
2022-11-09T20:24:37.873Z,10.86
2022-11-09T20:29:57.722Z,10.86
2022-11-09T20:35:17.862Z,10.85
2022-11-09T20:40:37.969Z,10.82
2022-11-09T20:46:04.144Z,10.78
2022-11-09T20:51:24.505Z,10.81
2022-11-09T20:56:45.684Z,10.83
2022-11-09T21:02:05.761Z,10.79
2022-11-09T21:07:25.841Z,10.77
2022-11-09T21:12:45.678Z,10.74
2022-11-09T21:18:07.338Z,10.74
2022-11-09T21:23:27.529Z,10.77
2022-11-09T21:29:06.135Z,10.65
2022-11-09T21:34:28.700Z,10.57
2022-11-09T21:39:50.849Z,10.60
2022-11-09T21:45:10.655Z,10.64
2022-11-09T21:50:30.660Z,10.61
2022-11-09T21:55:50.796Z,10.50
2022-11-09T22:01:10.878Z,10.41
2022-11-09T22:06:31.157Z,10.34
2022-11-09T22:12:09.908Z,10.31
2022-11-09T22:17:29.935Z,10.36
2022-11-09T22:22:50.366Z,10.42
2022-11-09T22:28:10.387Z,10.47
2022-11-09T22:33:31.427Z,10.51
2022-11-09T22:38:51.554Z,10.47
2022-11-09T22:44:13.111Z,10.45
2022-11-09T22:49:34.215Z,10.44
2022-11-09T22:54:54.471Z,10.42
2022-11-09T23:00:16.123Z,10.35
2022-11-09T23:05:36.140Z,10.23
2022-11-09T23:10:56.368Z,10.16
2022-11-09T23:16:16.544Z,10.09
2022-11-09T23:21:37.431Z,9.96
2022-11-09T23:26:57.361Z,9.83
2022-11-09T23:32:17.212Z,9.75
2022-11-09T23:37:37.207Z,9.82
2022-11-09T23:43:05.644Z,9.95
2022-11-09T23:48:25.943Z,10.02
2022-11-09T23:53:46.136Z,10.08
2022-11-09T23:59:08.456Z,10.08
